createdAt,value
2024-02-19T00:00:51.978Z,8.60
2024-02-19T00:03:40.324Z,8.50
2024-02-19T00:06:28.492Z,8.50
2024-02-19T00:09:16.406Z,8.50
2024-02-19T00:12:04.804Z,8.50
2024-02-19T00:15:00.565Z,8.50
2024-02-19T00:17:48.706Z,8.50
2024-02-19T00:20:39.398Z,8.50
2024-02-19T00:23:30.828Z,8.50
2024-02-19T00:26:18.929Z,8.60
2024-02-19T00:29:11.550Z,8.60
2024-02-19T00:32:02.166Z,8.60
2024-02-19T00:34:50.174Z,8.60
2024-02-19T00:37:40.542Z,8.70
2024-02-19T00:40:28.780Z,8.70
2024-02-19T00:43:22.361Z,8.70
2024-02-19T00:46:10.648Z,8.60
2024-02-19T00:49:01.309Z,8.60
2024-02-19T00:51:55.270Z,8.60
2024-02-19T00:54:49.032Z,8.60
2024-02-19T00:57:37.372Z,8.60
2024-02-19T01:00:30.049Z,8.70
2024-02-19T01:03:23.545Z,8.70
2024-02-19T01:06:11.980Z,8.80
2024-02-19T01:09:03.365Z,8.80
2024-02-19T01:11:54.420Z,8.80
2024-02-19T01:14:56.863Z,8.90
2024-02-19T01:17:45.721Z,8.80
2024-02-19T01:20:39.061Z,8.90
2024-02-19T01:23:39.835Z,8.90
2024-02-19T01:26:35.200Z,9.00
2024-02-19T01:29:29.894Z,9.00
2024-02-19T01:32:22.860Z,9.00
2024-02-19T01:35:11.937Z,9.00
2024-02-19T01:38:06.641Z,9.10
2024-02-19T01:40:56.443Z,9.10
2024-02-19T01:43:55.206Z,9.20
2024-02-19T01:46:44.690Z,9.40
2024-02-19T01:49:39.821Z,9.40
2024-02-19T01:52:37.436Z,9.40
2024-02-19T01:55:27.100Z,9.40
2024-02-19T01:58:23.209Z,9.40
2024-02-19T02:01:31.204Z,9.30
2024-02-19T02:04:20.566Z,9.30
2024-02-19T02:07:24.708Z,9.20
2024-02-19T02:10:28.601Z,9.20
2024-02-19T02:13:20.336Z,9.10
2024-02-19T02:16:19.145Z,9.20
2024-02-19T02:19:32.063Z,9.20
2024-02-19T02:22:49.855Z,9.20
2024-02-19T02:26:06.613Z,9.20
2024-02-19T02:29:38.814Z,9.30
2024-02-19T02:33:33.090Z,9.40
2024-02-19T02:39:43.215Z,9.50
2024-02-19T02:42:38.219Z,9.50
2024-02-19T02:45:33.431Z,9.70
2024-02-19T02:48:30.842Z,9.60
2024-02-19T02:51:21.938Z,9.50
2024-02-19T02:55:04.393Z,9.60
2024-02-19T02:57:52.841Z,9.70
2024-02-19T03:00:43.494Z,9.70
2024-02-19T03:03:37.606Z,9.80
2024-02-19T03:06:46.638Z,9.80
2024-02-19T03:09:42.420Z,9.80
2024-02-19T03:12:35.786Z,9.70
2024-02-19T03:15:38.467Z,9.80
2024-02-19T03:18:56.615Z,9.80
2024-02-19T03:22:12.165Z,9.70
2024-02-19T03:25:15.918Z,9.80
2024-02-19T03:28:04.088Z,9.70
2024-02-19T03:30:56.909Z,9.60
2024-02-19T03:33:48.614Z,9.50
2024-02-19T03:36:54.669Z,9.40
2024-02-19T03:39:45.975Z,9.40
2024-02-19T03:42:56.418Z,9.20
2024-02-19T03:49:08.268Z,9.40
2024-02-19T03:52:17.213Z,9.40
2024-02-19T03:56:18.655Z,9.40
2024-02-19T03:59:20.192Z,9.40
2024-02-19T04:02:17.510Z,9.40
2024-02-19T04:05:16.478Z,9.30
2024-02-19T04:08:10.203Z,9.20
2024-02-19T04:10:58.322Z,9.30
2024-02-19T04:13:48.619Z,9.30
2024-02-19T04:16:36.781Z,9.30
2024-02-19T04:19:28.978Z,9.20
2024-02-19T04:22:18.472Z,9.20
2024-02-19T04:25:17.411Z,9.10
2024-02-19T04:29:42.893Z,9.10
2024-02-19T04:32:57.877Z,9.00
2024-02-19T04:35:47.045Z,9.00
2024-02-19T04:38:39.676Z,9.00
2024-02-19T04:41:33.540Z,9.00
2024-02-19T04:44:39.347Z,8.80
2024-02-19T04:47:30.851Z,8.80
2024-02-19T04:50:20.061Z,8.80
2024-02-19T04:53:08.766Z,8.70
2024-02-19T04:56:04.813Z,8.70
2024-02-19T04:59:01.438Z,8.70
2024-02-19T05:01:54.103Z,8.60
2024-02-19T05:04:42.806Z,8.60
2024-02-19T05:07:41.531Z,8.70
2024-02-19T05:10:32.562Z,8.60
2024-02-19T05:13:20.806Z,8.60
2024-02-19T05:16:12.517Z,8.50
2024-02-19T05:19:02.527Z,8.40
2024-02-19T05:21:55.581Z,8.40
2024-02-19T05:24:46.731Z,8.30
2024-02-19T05:27:35.089Z,8.30
2024-02-19T05:30:24.560Z,8.30
2024-02-19T05:33:16.269Z,8.30
2024-02-19T05:36:04.639Z,8.20
2024-02-19T05:38:53.337Z,8.10
2024-02-19T05:41:41.806Z,8.10
2024-02-19T05:44:33.130Z,8.10
2024-02-19T05:47:21.893Z,8.10
2024-02-19T05:50:10.599Z,8.10
2024-02-19T05:53:02.250Z,8.20
2024-02-19T05:55:50.612Z,8.10
2024-02-19T05:58:44.302Z,8.10
2024-02-19T06:01:32.553Z,8.10
2024-02-19T06:04:23.608Z,8.00
2024-02-19T06:07:11.630Z,8.00
2024-02-19T06:09:59.743Z,8.00
2024-02-19T06:20:36.979Z,8.00
2024-02-19T06:23:24.961Z,8.00
2024-02-19T06:26:38.897Z,8.00
2024-02-19T06:30:36.443Z,8.00
2024-02-19T06:39:39.704Z,7.90
2024-02-19T06:42:27.690Z,8.00
2024-02-19T09:32:53.067Z,10.10
2024-02-19T09:44:29.733Z,10.00
2024-02-19T09:51:52.168Z,10.70
2024-02-19T10:22:07.529Z,11.50
2024-02-19T11:19:23.724Z,11.20
2024-02-19T11:22:22.792Z,11.60
2024-02-19T11:25:32.029Z,11.30
2024-02-19T11:28:31.897Z,11.60
2024-02-19T11:31:26.497Z,11.50
2024-02-19T11:35:21.458Z,11.50
2024-02-19T11:38:19.997Z,11.50
2024-02-19T11:41:16.144Z,12.30
2024-02-19T11:44:19.545Z,12.30
2024-02-19T11:47:16.162Z,12.30
2024-02-19T11:50:25.493Z,12.10
2024-02-19T11:53:34.176Z,11.80
2024-02-19T11:56:27.985Z,11.80
2024-02-19T12:23:06.535Z,12.30
2024-02-19T12:26:11.047Z,12.50
2024-02-19T12:29:27.545Z,12.40
2024-02-19T12:36:09.904Z,12.30
2024-02-19T12:39:10.638Z,12.20
2024-02-19T12:42:15.305Z,12.30
2024-02-19T12:45:22.845Z,12.30
2024-02-19T12:48:19.244Z,12.40
2024-02-19T12:51:13.148Z,12.40
2024-02-19T12:54:10.658Z,12.50
2024-02-19T12:57:05.168Z,12.50
2024-02-19T13:00:07.905Z,12.40
2024-02-19T13:03:13.773Z,12.50
2024-02-19T13:06:10.145Z,12.40
2024-02-19T13:09:40.622Z,12.40
2024-02-19T13:13:34.606Z,12.50
2024-02-19T13:19:26.343Z,12.30
2024-02-19T13:19:58.819Z,12.10
2024-02-19T13:22:52.307Z,12.20
2024-02-19T13:25:43.943Z,12.30
2024-02-19T13:28:37.105Z,12.20
2024-02-19T13:31:25.832Z,12.20
2024-02-19T13:34:13.944Z,12.20
2024-02-19T13:37:08.839Z,12.30
2024-02-19T13:39:59.841Z,12.30
2024-02-19T13:42:54.351Z,12.30
2024-02-19T13:45:59.130Z,12.20
2024-02-19T13:49:02.356Z,12.30
2024-02-19T13:52:08.435Z,12.20
2024-02-19T13:55:01.057Z,12.30
2024-02-19T13:58:02.687Z,12.30
2024-02-19T14:00:55.134Z,12.20
2024-02-19T14:03:44.816Z,12.20
2024-02-19T14:06:38.286Z,12.10
2024-02-19T14:09:29.489Z,12.20
2024-02-19T14:12:22.822Z,12.20
2024-02-19T14:15:15.771Z,12.10
2024-02-19T14:18:06.192Z,12.20
2024-02-19T14:21:03.313Z,12.10
2024-02-19T14:23:51.631Z,12.10
2024-02-19T14:26:55.036Z,12.10
2024-02-19T14:29:58.422Z,12.10
2024-02-19T14:32:51.548Z,12.20
2024-02-19T14:35:50.524Z,12.40
2024-02-19T14:38:52.136Z,12.40
2024-02-19T14:53:29.937Z,13.30
2024-02-19T14:56:20.983Z,12.90
2024-02-19T14:59:16.546Z,12.40
2024-02-19T15:02:11.551Z,12.40
2024-02-19T15:05:02.784Z,12.30
2024-02-19T15:07:55.872Z,12.20
2024-02-19T15:19:00.532Z,11.20
2024-02-19T15:21:51.991Z,11.10
2024-02-19T15:24:40.520Z,10.90
2024-02-19T15:39:56.510Z,10.90
2024-02-19T15:43:14.507Z,11.00
2024-02-19T16:10:11.961Z,10.90
2024-02-19T17:00:16.960Z,10.60
2024-02-19T17:03:05.112Z,10.60
2024-02-19T17:06:25.809Z,10.60
2024-02-19T17:09:12.563Z,10.70
2024-02-19T17:12:02.908Z,10.60
2024-02-19T17:14:51.432Z,10.50
2024-02-19T17:17:40.451Z,10.50
2024-02-19T17:20:28.510Z,10.50
2024-02-19T17:23:19.376Z,10.60
2024-02-19T17:26:08.465Z,10.50
2024-02-19T17:28:56.437Z,10.40
2024-02-19T17:31:47.936Z,10.40
2024-02-19T17:34:39.406Z,10.30
2024-02-19T17:37:32.271Z,10.30
2024-02-19T17:40:25.453Z,10.40
2024-02-19T17:43:14.220Z,10.30
2024-02-19T17:46:06.013Z,10.30
2024-02-19T17:49:03.056Z,10.30
2024-02-19T17:51:54.203Z,10.30
2024-02-19T17:54:41.970Z,10.30
2024-02-19T17:57:29.809Z,10.30
2024-02-19T18:00:17.994Z,10.30
2024-02-19T18:03:07.290Z,10.20
2024-02-19T18:05:56.298Z,10.20
2024-02-19T18:08:44.228Z,10.20
2024-02-19T18:11:32.211Z,10.10
2024-02-19T18:14:20.305Z,10.00
2024-02-19T18:17:08.161Z,10.00
2024-02-19T18:19:56.415Z,10.00
2024-02-19T18:22:45.544Z,9.90
2024-02-19T18:25:36.482Z,9.90
2024-02-19T18:28:24.281Z,9.90
2024-02-19T18:31:15.285Z,9.90
2024-02-19T18:34:09.685Z,9.80
2024-02-19T18:37:05.082Z,9.70
2024-02-19T18:39:55.215Z,9.70
2024-02-19T18:42:45.328Z,9.70
2024-02-19T18:45:38.785Z,9.80
2024-02-19T18:48:33.577Z,9.70
2024-02-19T18:51:24.092Z,9.70
2024-02-19T18:54:13.739Z,9.60
2024-02-19T18:57:02.796Z,9.70
2024-02-19T19:00:00.461Z,9.70
2024-02-19T19:02:50.608Z,9.60
2024-02-19T19:05:44.725Z,9.60
2024-02-19T19:08:40.513Z,9.60
2024-02-19T19:11:30.890Z,9.60
2024-02-19T19:14:21.028Z,9.60
2024-02-19T19:17:10.490Z,9.60
2024-02-19T19:38:05.200Z,9.50
2024-02-19T19:41:04.645Z,9.40
2024-02-19T19:44:07.543Z,9.50
2024-02-19T19:46:58.916Z,9.60
2024-02-19T19:49:49.219Z,9.60
2024-02-19T19:52:40.664Z,9.70
2024-02-19T19:55:32.426Z,9.60
2024-02-19T19:59:07.211Z,9.60
2024-02-19T20:05:11.341Z,9.50
2024-02-19T20:07:59.467Z,9.40
2024-02-19T20:10:55.017Z,9.40
2024-02-19T20:13:45.789Z,9.30
2024-02-19T20:16:43.053Z,9.20
2024-02-19T20:19:31.531Z,9.30
2024-02-19T20:22:19.877Z,9.20
2024-02-19T20:25:24.104Z,9.20
2024-02-19T20:28:25.311Z,9.20
2024-02-19T20:31:13.454Z,9.20
2024-02-19T20:34:04.669Z,9.20
2024-02-19T20:36:52.522Z,9.20
2024-02-19T20:39:40.484Z,9.20
2024-02-19T20:42:31.694Z,9.20
2024-02-19T20:49:25.300Z,9.10
2024-02-19T20:52:16.435Z,9.10
2024-02-19T20:55:13.946Z,9.30
2024-02-19T20:58:05.525Z,9.30
2024-02-19T21:00:59.353Z,9.30
2024-02-19T21:03:54.542Z,9.10
2024-02-19T21:06:49.176Z,9.20
2024-02-19T21:09:40.630Z,9.20
2024-02-19T21:12:29.083Z,9.30
2024-02-19T21:15:22.454Z,9.30
2024-02-19T21:18:15.531Z,9.30
2024-02-19T21:21:10.275Z,9.20
2024-02-19T21:24:03.791Z,9.20
2024-02-19T21:26:56.421Z,9.20
2024-02-19T21:29:44.985Z,9.10
2024-02-19T21:32:39.850Z,9.20
2024-02-19T21:35:30.446Z,9.10
2024-02-19T21:38:31.672Z,9.20
2024-02-19T21:41:20.006Z,9.20
2024-02-19T21:44:08.003Z,9.20
2024-02-19T21:46:56.371Z,9.20
2024-02-19T21:49:45.391Z,9.20
2024-02-19T21:52:36.412Z,9.10
2024-02-19T21:55:24.509Z,8.90
2024-02-19T21:58:12.387Z,8.80
2024-02-19T22:01:00.692Z,8.70
2024-02-19T22:03:48.900Z,8.70
2024-02-19T22:06:39.906Z,8.70
2024-02-19T22:09:27.806Z,8.70
2024-02-19T22:12:19.016Z,8.60
2024-02-19T22:15:07.761Z,8.50
2024-02-19T22:17:56.117Z,8.40
2024-02-19T22:20:43.833Z,8.30
2024-02-19T22:23:31.897Z,8.30
2024-02-19T22:26:19.538Z,8.30
2024-02-19T22:29:07.338Z,8.20
2024-02-19T22:31:54.944Z,8.10
2024-02-19T22:34:46.690Z,8.10
2024-02-19T22:37:37.227Z,8.10
2024-02-19T22:40:26.150Z,8.10
2024-02-19T22:43:14.307Z,8.20
2024-02-19T22:46:06.627Z,8.20
2024-02-19T22:48:58.067Z,8.30
2024-02-19T22:51:53.401Z,8.40
2024-02-19T22:54:41.296Z,8.40
2024-02-19T22:57:31.632Z,8.40
2024-02-19T23:00:36.021Z,8.50
2024-02-19T23:03:24.151Z,8.50
2024-02-19T23:06:11.759Z,8.60
2024-02-19T23:09:03.219Z,8.60
2024-02-19T23:11:51.353Z,8.60
2024-02-19T23:14:40.526Z,8.60
2024-02-19T23:17:28.305Z,8.70
2024-02-19T23:20:15.950Z,8.60
2024-02-19T23:23:04.365Z,8.60
2024-02-19T23:25:55.449Z,8.50
2024-02-19T23:28:44.095Z,8.50
2024-02-19T23:31:34.220Z,8.40
2024-02-19T23:34:22.350Z,8.30
2024-02-19T23:37:11.126Z,8.40
2024-02-19T23:39:59.956Z,8.40
2024-02-19T23:42:48.604Z,8.50
2024-02-19T23:45:36.586Z,8.40
2024-02-19T23:48:26.074Z,8.30
2024-02-19T23:51:14.250Z,8.20
2024-02-19T23:54:04.218Z,8.20
2024-02-19T23:56:52.100Z,8.20
2024-02-19T23:59:40.039Z,8.20
